sensor_id;sensor_type;location;lat;lon;timestamp;temperature;humidity
21627;DHT22;10975;47.872;12.972;2023-02-17T00:00:53;3.80;99.90
21627;DHT22;10975;47.872;12.972;2023-02-17T00:03:20;3.90;99.90
21627;DHT22;10975;47.872;12.972;2023-02-17T00:05:46;3.90;99.90
21627;DHT22;10975;47.872;12.972;2023-02-17T00:08:16;3.90;99.90
21627;DHT22;10975;47.872;12.972;2023-02-17T00:10:43;3.90;99.90
21627;DHT22;10975;47.872;12.972;2023-02-17T00:13:09;4.00;99.90
21627;DHT22;10975;47.872;12.972;2023-02-17T00:15:39;4.00;99.90
21627;DHT22;10975;47.872;12.972;2023-02-17T00:18:06;4.00;99.90
21627;DHT22;10975;47.872;12.972;2023-02-17T00:20:32;4.00;99.90
21627;DHT22;10975;47.872;12.972;2023-02-17T00:22:59;4.10;99.90
21627;DHT22;10975;47.872;12.972;2023-02-17T00:25:26;4.10;99.90
21627;DHT22;10975;47.872;12.972;2023-02-17T00:27:52;4.20;99.90
21627;DHT22;10975;47.872;12.972;2023-02-17T00:30:19;4.20;99.90
21627;DHT22;10975;47.872;12.972;2023-02-17T00:32:46;4.20;99.90
21627;DHT22;10975;47.872;12.972;2023-02-17T00:35:12;4.30;99.90
21627;DHT22;10975;47.872;12.972;2023-02-17T00:37:39;4.30;99.90
21627;DHT22;10975;47.872;12.972;2023-02-17T00:40:06;4.30;99.90
21627;DHT22;10975;47.872;12.972;2023-02-17T00:42:33;4.30;99.90
21627;DHT22;10975;47.872;12.972;2023-02-17T00:44:59;4.20;99.90
21627;DHT22;10975;47.872;12.972;2023-02-17T00:47:26;4.30;99.90
21627;DHT22;10975;47.872;12.972;2023-02-17T00:49:52;4.30;99.90
21627;DHT22;10975;47.872;12.972;2023-02-17T00:52:19;4.30;99.90
21627;DHT22;10975;47.872;12.972;2023-02-17T00:54:46;4.40;99.90
21627;DHT22;10975;47.872;12.972;2023-02-17T00:57:12;4.40;99.90
21627;DHT22;10975;47.872;12.972;2023-02-17T00:59:39;4.40;99.90
21627;DHT22;10975;47.872;12.972;2023-02-17T01:02:07;4.40;99.90
21627;DHT22;10975;47.872;12.972;2023-02-17T01:04:34;4.40;99.90
21627;DHT22;10975;47.872;12.972;2023-02-17T01:07:01;4.40;99.90
21627;DHT22;10975;47.872;12.972;2023-02-17T01:09:27;4.40;99.90
21627;DHT22;10975;47.872;12.972;2023-02-17T01:11:54;4.40;99.90
21627;DHT22;10975;47.872;12.972;2023-02-17T01:14:20;4.40;99.90
21627;DHT22;10975;47.872;12.972;2023-02-17T01:16:47;4.40;99.90
21627;DHT22;10975;47.872;12.972;2023-02-17T01:19:16;4.40;99.90
21627;DHT22;10975;47.872;12.972;2023-02-17T01:21:42;4.40;99.90
21627;DHT22;10975;47.872;12.972;2023-02-17T01:24:10;4.40;99.90
21627;DHT22;10975;47.872;12.972;2023-02-17T01:26:37;4.50;99.90
21627;DHT22;10975;47.872;12.972;2023-02-17T01:29:05;4.50;99.90
21627;DHT22;10975;47.872;12.972;2023-02-17T01:31:32;4.40;99.90
21627;DHT22;10975;47.872;12.972;2023-02-17T01:34:01;4.40;99.90
21627;DHT22;10975;47.872;12.972;2023-02-17T01:36:28;4.40;99.90
21627;DHT22;10975;47.872;12.972;2023-02-17T01:38:55;4.40;99.90
21627;DHT22;10975;47.872;12.972;2023-02-17T01:41:22;4.50;99.90
21627;DHT22;10975;47.872;12.972;2023-02-17T01:44:05;4.50;99.90
21627;DHT22;10975;47.872;12.972;2023-02-17T01:46:33;4.60;99.90
21627;DHT22;10975;47.872;12.972;2023-02-17T01:49:00;4.60;99.90
21627;DHT22;10975;47.872;12.972;2023-02-17T01:51:29;4.70;99.90
21627;DHT22;10975;47.872;12.972;2023-02-17T01:53:58;4.80;99.90
21627;DHT22;10975;47.872;12.972;2023-02-17T01:56:27;4.80;99.90
21627;DHT22;10975;47.872;12.972;2023-02-17T01:58:56;4.80;99.90
21627;DHT22;10975;47.872;12.972;2023-02-17T02:01:25;4.80;99.90
21627;DHT22;10975;47.872;12.972;2023-02-17T02:03:52;4.80;99.90
21627;DHT22;10975;47.872;12.972;2023-02-17T02:06:20;4.80;99.90
21627;DHT22;10975;47.872;12.972;2023-02-17T02:08:53;4.80;99.90
21627;DHT22;10975;47.872;12.972;2023-02-17T02:11:21;4.80;99.90
21627;DHT22;10975;47.872;12.972;2023-02-17T02:13:48;4.80;99.90
21627;DHT22;10975;47.872;12.972;2023-02-17T02:16:19;4.80;99.90
21627;DHT22;10975;47.872;12.972;2023-02-17T02:34:53;4.80;99.90
21627;DHT22;10975;47.872;12.972;2023-02-17T02:37:23;4.80;99.90
21627;DHT22;10975;47.872;12.972;2023-02-17T02:39:51;4.80;99.90
21627;DHT22;10975;47.872;12.972;2023-02-17T02:42:22;4.70;99.90
21627;DHT22;10975;47.872;12.972;2023-02-17T02:44:49;4.70;99.90
21627;DHT22;10975;47.872;12.972;2023-02-17T02:50:02;4.70;99.90
21627;DHT22;10975;47.872;12.972;2023-02-17T02:52:36;4.70;99.90
21627;DHT22;10975;47.872;12.972;2023-02-17T02:57:47;4.70;99.90
21627;DHT22;10975;47.872;12.972;2023-02-17T03:05:15;4.70;99.90
21627;DHT22;10975;47.872;12.972;2023-02-17T03:10:12;4.60;99.90
21627;DHT22;10975;47.872;12.972;2023-02-17T03:12:39;4.70;99.90
21627;DHT22;10975;47.872;12.972;2023-02-17T03:17:41;4.70;99.90
21627;DHT22;10975;47.872;12.972;2023-02-17T03:20:08;4.70;99.90
21627;DHT22;10975;47.872;12.972;2023-02-17T03:22:36;4.70;99.90
21627;DHT22;10975;47.872;12.972;2023-02-17T03:25:06;4.70;99.90
21627;DHT22;10975;47.872;12.972;2023-02-17T03:27:32;4.70;99.90
21627;DHT22;10975;47.872;12.972;2023-02-17T03:29:59;4.70;99.90
21627;DHT22;10975;47.872;12.972;2023-02-17T03:32:26;4.70;99.90
21627;DHT22;10975;47.872;12.972;2023-02-17T03:34:53;4.80;99.90
21627;DHT22;10975;47.872;12.972;2023-02-17T03:37:19;4.80;99.90
21627;DHT22;10975;47.872;12.972;2023-02-17T03:39:46;4.80;99.90
21627;DHT22;10975;47.872;12.972;2023-02-17T03:42:13;4.80;99.90
21627;DHT22;10975;47.872;12.972;2023-02-17T03:44:39;4.80;99.90
21627;DHT22;10975;47.872;12.972;2023-02-17T03:47:08;4.80;99.90
21627;DHT22;10975;47.872;12.972;2023-02-17T03:49:35;4.80;99.90
21627;DHT22;10975;47.872;12.972;2023-02-17T03:52:02;4.80;99.90
21627;DHT22;10975;47.872;12.972;2023-02-17T03:54:28;4.80;99.90
21627;DHT22;10975;47.872;12.972;2023-02-17T03:56:55;4.90;99.90
21627;DHT22;10975;47.872;12.972;2023-02-17T03:59:22;4.90;99.90
21627;DHT22;10975;47.872;12.972;2023-02-17T04:01:48;4.90;99.90
21627;DHT22;10975;47.872;12.972;2023-02-17T04:04:15;4.90;99.90
21627;DHT22;10975;47.872;12.972;2023-02-17T04:06:42;4.90;99.90
21627;DHT22;10975;47.872;12.972;2023-02-17T04:09:09;4.90;99.90
21627;DHT22;10975;47.872;12.972;2023-02-17T04:11:35;5.00;99.90
21627;DHT22;10975;47.872;12.972;2023-02-17T04:14:02;5.00;99.90
21627;DHT22;10975;47.872;12.972;2023-02-17T04:16:29;5.00;99.90
21627;DHT22;10975;47.872;12.972;2023-02-17T04:18:55;5.00;99.90
21627;DHT22;10975;47.872;12.972;2023-02-17T04:21:22;5.00;99.90
21627;DHT22;10975;47.872;12.972;2023-02-17T04:23:49;5.10;99.90
21627;DHT22;10975;47.872;12.972;2023-02-17T04:26:15;5.10;99.90
21627;DHT22;10975;47.872;12.972;2023-02-17T04:28:42;5.10;99.90
21627;DHT22;10975;47.872;12.972;2023-02-17T04:31:09;5.20;99.90
21627;DHT22;10975;47.872;12.972;2023-02-17T04:33:36;5.20;99.90
21627;DHT22;10975;47.872;12.972;2023-02-17T04:36:03;5.20;99.90
21627;DHT22;10975;47.872;12.972;2023-02-17T04:38:31;5.20;99.90
21627;DHT22;10975;47.872;12.972;2023-02-17T04:40:58;5.20;99.90
21627;DHT22;10975;47.872;12.972;2023-02-17T04:43:25;5.20;99.90
21627;DHT22;10975;47.872;12.972;2023-02-17T04:45:52;5.30;99.90
21627;DHT22;10975;47.872;12.972;2023-02-17T04:48:19;5.30;99.90
21627;DHT22;10975;47.872;12.972;2023-02-17T04:50:46;5.30;99.90
21627;DHT22;10975;47.872;12.972;2023-02-17T04:53:12;5.30;99.90
21627;DHT22;10975;47.872;12.972;2023-02-17T04:55:40;5.20;99.90
21627;DHT22;10975;47.872;12.972;2023-02-17T04:58:07;5.20;99.90
21627;DHT22;10975;47.872;12.972;2023-02-17T05:00:34;5.30;99.90
21627;DHT22;10975;47.872;12.972;2023-02-17T05:03:01;5.30;99.90
21627;DHT22;10975;47.872;12.972;2023-02-17T05:05:30;5.30;99.90
21627;DHT22;10975;47.872;12.972;2023-02-17T05:07:57;5.30;99.90
21627;DHT22;10975;47.872;12.972;2023-02-17T05:10:23;5.30;99.90
21627;DHT22;10975;47.872;12.972;2023-02-17T05:12:50;5.30;99.90
21627;DHT22;10975;47.872;12.972;2023-02-17T05:15:18;5.30;99.90
21627;DHT22;10975;47.872;12.972;2023-02-17T05:17:44;5.40;99.90
21627;DHT22;10975;47.872;12.972;2023-02-17T05:20:11;5.40;99.90
21627;DHT22;10975;47.872;12.972;2023-02-17T05:22:38;5.40;99.90
21627;DHT22;10975;47.872;12.972;2023-02-17T05:25:05;5.40;99.90
21627;DHT22;10975;47.872;12.972;2023-02-17T05:27:31;5.40;99.90
21627;DHT22;10975;47.872;12.972;2023-02-17T05:29:58;5.50;99.90
21627;DHT22;10975;47.872;12.972;2023-02-17T05:32:25;5.50;99.90
21627;DHT22;10975;47.872;12.972;2023-02-17T05:34:52;5.50;99.90
21627;DHT22;10975;47.872;12.972;2023-02-17T05:37:18;5.50;99.90
21627;DHT22;10975;47.872;12.972;2023-02-17T05:39:45;5.50;99.90
21627;DHT22;10975;47.872;12.972;2023-02-17T05:42:12;5.50;99.90
21627;DHT22;10975;47.872;12.972;2023-02-17T05:44:38;5.50;99.90
21627;DHT22;10975;47.872;12.972;2023-02-17T05:47:05;5.50;99.90
21627;DHT22;10975;47.872;12.972;2023-02-17T05:49:32;5.50;99.90
21627;DHT22;10975;47.872;12.972;2023-02-17T05:51:58;5.60;99.90
21627;DHT22;10975;47.872;12.972;2023-02-17T05:54:25;5.60;99.90
21627;DHT22;10975;47.872;12.972;2023-02-17T05:56:51;5.50;99.90
21627;DHT22;10975;47.872;12.972;2023-02-17T05:59:18;5.50;99.90
21627;DHT22;10975;47.872;12.972;2023-02-17T06:01:48;5.50;99.90
21627;DHT22;10975;47.872;12.972;2023-02-17T06:04:15;5.50;99.90
21627;DHT22;10975;47.872;12.972;2023-02-17T06:06:42;5.50;99.90
21627;DHT22;10975;47.872;12.972;2023-02-17T06:09:08;5.60;99.90
21627;DHT22;10975;47.872;12.972;2023-02-17T06:11:35;5.60;99.90
21627;DHT22;10975;47.872;12.972;2023-02-17T06:14:02;5.60;99.90
21627;DHT22;10975;47.872;12.972;2023-02-17T06:16:28;5.60;99.90
21627;DHT22;10975;47.872;12.972;2023-02-17T06:18:55;5.60;99.90
21627;DHT22;10975;47.872;12.972;2023-02-17T06:21:22;5.60;99.90
21627;DHT22;10975;47.872;12.972;2023-02-17T06:23:49;5.60;99.90
21627;DHT22;10975;47.872;12.972;2023-02-17T06:26:15;5.60;99.90
21627;DHT22;10975;47.872;12.972;2023-02-17T06:28:44;5.70;99.90
21627;DHT22;10975;47.872;12.972;2023-02-17T06:31:10;5.70;99.90
21627;DHT22;10975;47.872;12.972;2023-02-17T06:33:37;5.70;99.90
21627;DHT22;10975;47.872;12.972;2023-02-17T06:36:04;5.70;99.90
21627;DHT22;10975;47.872;12.972;2023-02-17T06:38:31;5.80;99.90
21627;DHT22;10975;47.872;12.972;2023-02-17T06:40:58;5.80;99.90
21627;DHT22;10975;47.872;12.972;2023-02-17T06:43:25;5.80;99.90
21627;DHT22;10975;47.872;12.972;2023-02-17T06:45:52;5.80;99.90
21627;DHT22;10975;47.872;12.972;2023-02-17T06:48:19;5.90;99.90
21627;DHT22;10975;47.872;12.972;2023-02-17T06:50:47;6.00;99.90
21627;DHT22;10975;47.872;12.972;2023-02-17T06:53:14;6.00;99.90
21627;DHT22;10975;47.872;12.972;2023-02-17T06:55:43;6.00;99.90
21627;DHT22;10975;47.872;12.972;2023-02-17T06:58:10;6.00;99.90
21627;DHT22;10975;47.872;12.972;2023-02-17T07:00:37;6.00;99.90
21627;DHT22;10975;47.872;12.972;2023-02-17T07:03:03;6.10;99.90
21627;DHT22;10975;47.872;12.972;2023-02-17T07:05:32;6.10;99.90
21627;DHT22;10975;47.872;12.972;2023-02-17T07:07:59;6.20;99.90
21627;DHT22;10975;47.872;12.972;2023-02-17T07:10:26;6.20;99.90
21627;DHT22;10975;47.872;12.972;2023-02-17T07:12:52;6.20;99.90
21627;DHT22;10975;47.872;12.972;2023-02-17T07:15:33;6.20;99.90
21627;DHT22;10975;47.872;12.972;2023-02-17T07:18:00;6.20;99.90
21627;DHT22;10975;47.872;12.972;2023-02-17T07:20:27;6.20;99.90
21627;DHT22;10975;47.872;12.972;2023-02-17T07:22:55;6.20;99.90
21627;DHT22;10975;47.872;12.972;2023-02-17T07:25:21;6.10;99.90
21627;DHT22;10975;47.872;12.972;2023-02-17T07:27:48;6.20;99.90
21627;DHT22;10975;47.872;12.972;2023-02-17T07:30:15;6.20;99.90
21627;DHT22;10975;47.872;12.972;2023-02-17T07:32:43;6.20;99.90
21627;DHT22;10975;47.872;12.972;2023-02-17T07:35:09;6.30;99.90
21627;DHT22;10975;47.872;12.972;2023-02-17T07:37:36;6.30;99.90
21627;DHT22;10975;47.872;12.972;2023-02-17T07:40:03;6.40;99.90
21627;DHT22;10975;47.872;12.972;2023-02-17T07:42:30;6.40;99.90
21627;DHT22;10975;47.872;12.972;2023-02-17T07:44:57;6.60;99.90
21627;DHT22;10975;47.872;12.972;2023-02-17T07:47:23;6.60;99.90
21627;DHT22;10975;47.872;12.972;2023-02-17T07:49:50;6.60;99.90
21627;DHT22;10975;47.872;12.972;2023-02-17T07:52:17;6.60;99.90
21627;DHT22;10975;47.872;12.972;2023-02-17T07:54:44;6.70;99.90
21627;DHT22;10975;47.872;12.972;2023-02-17T07:57:10;6.70;99.90
21627;DHT22;10975;47.872;12.972;2023-02-17T07:59:37;6.80;99.90
21627;DHT22;10975;47.872;12.972;2023-02-17T08:02:04;6.80;99.90
21627;DHT22;10975;47.872;12.972;2023-02-17T08:04:30;6.80;99.90
21627;DHT22;10975;47.872;12.972;2023-02-17T08:06:58;6.80;99.90
21627;DHT22;10975;47.872;12.972;2023-02-17T08:09:25;6.80;99.90
21627;DHT22;10975;47.872;12.972;2023-02-17T08:12:17;6.80;99.90
21627;DHT22;10975;47.872;12.972;2023-02-17T08:15:04;6.90;99.90
21627;DHT22;10975;47.872;12.972;2023-02-17T08:17:31;7.00;99.90
21627;DHT22;10975;47.872;12.972;2023-02-17T08:19:58;7.10;99.90
21627;DHT22;10975;47.872;12.972;2023-02-17T08:22:33;7.10;99.90
21627;DHT22;10975;47.872;12.972;2023-02-17T08:25:00;7.20;99.90
21627;DHT22;10975;47.872;12.972;2023-02-17T08:27:26;7.30;99.90
21627;DHT22;10975;47.872;12.972;2023-02-17T08:29:53;7.50;99.90
21627;DHT22;10975;47.872;12.972;2023-02-17T08:32:21;7.60;99.90
21627;DHT22;10975;47.872;12.972;2023-02-17T08:34:48;7.60;99.90
21627;DHT22;10975;47.872;12.972;2023-02-17T08:37:14;7.70;99.90
21627;DHT22;10975;47.872;12.972;2023-02-17T08:39:41;7.70;99.90
21627;DHT22;10975;47.872;12.972;2023-02-17T08:42:11;7.70;99.90
21627;DHT22;10975;47.872;12.972;2023-02-17T08:44:37;7.70;99.90
21627;DHT22;10975;47.872;12.972;2023-02-17T08:47:04;7.70;99.90
21627;DHT22;10975;47.872;12.972;2023-02-17T08:49:31;7.70;99.90
21627;DHT22;10975;47.872;12.972;2023-02-17T08:51:58;7.70;99.90
21627;DHT22;10975;47.872;12.972;2023-02-17T08:54:25;7.70;99.90
21627;DHT22;10975;47.872;12.972;2023-02-17T08:56:52;7.80;99.90
21627;DHT22;10975;47.872;12.972;2023-02-17T08:59:19;7.80;99.90
21627;DHT22;10975;47.872;12.972;2023-02-17T09:01:46;7.90;99.90
21627;DHT22;10975;47.872;12.972;2023-02-17T09:04:13;7.90;99.90
21627;DHT22;10975;47.872;12.972;2023-02-17T09:06:44;7.90;99.90
21627;DHT22;10975;47.872;12.972;2023-02-17T09:09:13;7.90;99.90
21627;DHT22;10975;47.872;12.972;2023-02-17T09:11:40;8.00;99.90
21627;DHT22;10975;47.872;12.972;2023-02-17T09:14:07;8.00;99.90
21627;DHT22;10975;47.872;12.972;2023-02-17T09:16:34;8.10;99.90
21627;DHT22;10975;47.872;12.972;2023-02-17T09:19:02;8.20;99.90
21627;DHT22;10975;47.872;12.972;2023-02-17T09:21:29;8.40;99.90
21627;DHT22;10975;47.872;12.972;2023-02-17T09:23:55;8.50;99.90
21627;DHT22;10975;47.872;12.972;2023-02-17T09:26:22;8.60;99.90
21627;DHT22;10975;47.872;12.972;2023-02-17T09:28:49;8.80;99.90
21627;DHT22;10975;47.872;12.972;2023-02-17T09:31:17;8.90;99.90
21627;DHT22;10975;47.872;12.972;2023-02-17T09:33:44;8.90;99.90
21627;DHT22;10975;47.872;12.972;2023-02-17T09:36:14;9.00;99.90
21627;DHT22;10975;47.872;12.972;2023-02-17T09:38:41;9.00;99.90
21627;DHT22;10975;47.872;12.972;2023-02-17T09:41:13;9.10;99.90
21627;DHT22;10975;47.872;12.972;2023-02-17T09:43:41;9.20;99.90
21627;DHT22;10975;47.872;12.972;2023-02-17T09:46:44;9.30;99.90
21627;DHT22;10975;47.872;12.972;2023-02-17T09:49:07;9.30;99.90
21627;DHT22;10975;47.872;12.972;2023-02-17T09:51:38;9.30;99.90
21627;DHT22;10975;47.872;12.972;2023-02-17T09:54:19;9.30;99.90
21627;DHT22;10975;47.872;12.972;2023-02-17T09:56:47;9.20;99.90
21627;DHT22;10975;47.872;12.972;2023-02-17T10:01:43;9.20;99.90
21627;DHT22;10975;47.872;12.972;2023-02-17T10:04:13;9.20;99.90
21627;DHT22;10975;47.872;12.972;2023-02-17T10:06:43;9.20;99.90
21627;DHT22;10975;47.872;12.972;2023-02-17T10:09:13;9.30;99.90
21627;DHT22;10975;47.872;12.972;2023-02-17T10:17:12;9.50;99.90
21627;DHT22;10975;47.872;12.972;2023-02-17T10:19:46;9.60;99.90
21627;DHT22;10975;47.872;12.972;2023-02-17T10:22:18;9.60;99.90
21627;DHT22;10975;47.872;12.972;2023-02-17T10:24:45;9.60;99.90
21627;DHT22;10975;47.872;12.972;2023-02-17T10:32:22;9.80;99.90
21627;DHT22;10975;47.872;12.972;2023-02-17T10:34:57;9.80;99.90
21627;DHT22;10975;47.872;12.972;2023-02-17T10:37:32;9.90;99.90
21627;DHT22;10975;47.872;12.972;2023-02-17T10:40:09;9.90;99.90
21627;DHT22;10975;47.872;12.972;2023-02-17T10:42:37;10.00;99.90
21627;DHT22;10975;47.872;12.972;2023-02-17T10:47:40;10.00;99.90
21627;DHT22;10975;47.872;12.972;2023-02-17T10:50:20;10.00;99.90
21627;DHT22;10975;47.872;12.972;2023-02-17T10:52:47;10.00;99.90
21627;DHT22;10975;47.872;12.972;2023-02-17T10:55:19;10.10;99.90
21627;DHT22;10975;47.872;12.972;2023-02-17T11:00:48;10.50;99.90
21627;DHT22;10975;47.872;12.972;2023-02-17T11:03:21;10.80;99.90
21627;DHT22;10975;47.872;12.972;2023-02-17T11:05:52;11.10;99.90
21627;DHT22;10975;47.872;12.972;2023-02-17T11:08:33;11.40;99.90
21627;DHT22;10975;47.872;12.972;2023-02-17T11:11:27;11.30;99.90
21627;DHT22;10975;47.872;12.972;2023-02-17T11:16:42;11.40;99.90
21627;DHT22;10975;47.872;12.972;2023-02-17T11:19:29;11.40;99.90
21627;DHT22;10975;47.872;12.972;2023-02-17T11:21:57;11.40;99.90
21627;DHT22;10975;47.872;12.972;2023-02-17T11:24:24;11.40;99.90
21627;DHT22;10975;47.872;12.972;2023-02-17T11:26:59;11.50;99.90
21627;DHT22;10975;47.872;12.972;2023-02-17T11:29:30;11.50;99.90
21627;DHT22;10975;47.872;12.972;2023-02-17T11:32:03;11.50;99.90
21627;DHT22;10975;47.872;12.972;2023-02-17T11:34:33;11.50;99.90
21627;DHT22;10975;47.872;12.972;2023-02-17T11:39:52;11.60;99.90
21627;DHT22;10975;47.872;12.972;2023-02-17T11:44:48;11.50;99.90
21627;DHT22;10975;47.872;12.972;2023-02-17T11:53:10;11.40;99.90
21627;DHT22;10975;47.872;12.972;2023-02-17T11:55:53;11.30;99.90
21627;DHT22;10975;47.872;12.972;2023-02-17T12:04:06;11.50;99.90
21627;DHT22;10975;47.872;12.972;2023-02-17T12:17:41;11.60;99.90
21627;DHT22;10975;47.872;12.972;2023-02-17T12:20:27;11.60;99.90
21627;DHT22;10975;47.872;12.972;2023-02-17T12:33:07;11.90;99.90
21627;DHT22;10975;47.872;12.972;2023-02-17T12:35:45;11.90;99.90
21627;DHT22;10975;47.872;12.972;2023-02-17T12:38:17;11.90;99.90
21627;DHT22;10975;47.872;12.972;2023-02-17T12:46:00;12.00;99.90
21627;DHT22;10975;47.872;12.972;2023-02-17T12:48:37;12.10;99.90
21627;DHT22;10975;47.872;12.972;2023-02-17T12:53:50;12.30;99.90
21627;DHT22;10975;47.872;12.972;2023-02-17T12:58:51;12.40;99.90
21627;DHT22;10975;47.872;12.972;2023-02-17T13:01:19;12.50;99.90
21627;DHT22;10975;47.872;12.972;2023-02-17T13:03:47;12.60;99.90
21627;DHT22;10975;47.872;12.972;2023-02-17T13:06:28;12.60;99.90
21627;DHT22;10975;47.872;12.972;2023-02-17T13:08:58;12.70;99.90
21627;DHT22;10975;47.872;12.972;2023-02-17T13:11:32;12.80;99.90
21627;DHT22;10975;47.872;12.972;2023-02-17T13:14:09;13.10;99.90
21627;DHT22;10975;47.872;12.972;2023-02-17T13:16:44;13.40;99.90
21627;DHT22;10975;47.872;12.972;2023-02-17T13:19:29;13.60;99.90
21627;DHT22;10975;47.872;12.972;2023-02-17T13:21:57;13.60;99.90
21627;DHT22;10975;47.872;12.972;2023-02-17T13:24:38;13.70;99.90
21627;DHT22;10975;47.872;12.972;2023-02-17T13:27:18;13.80;99.90
21627;DHT22;10975;47.872;12.972;2023-02-17T13:29:45;14.10;99.90
21627;DHT22;10975;47.872;12.972;2023-02-17T13:32:12;14.20;99.90
21627;DHT22;10975;47.872;12.972;2023-02-17T13:34:39;14.20;99.90
21627;DHT22;10975;47.872;12.972;2023-02-17T13:39:53;14.60;99.90
21627;DHT22;10975;47.872;12.972;2023-02-17T13:47:48;14.70;99.90
21627;DHT22;10975;47.872;12.972;2023-02-17T13:50:35;14.70;99.90
21627;DHT22;10975;47.872;12.972;2023-02-17T13:53:05;14.50;99.90
21627;DHT22;10975;47.872;12.972;2023-02-17T13:55:44;14.40;99.90
21627;DHT22;10975;47.872;12.972;2023-02-17T13:58:11;14.30;99.90
21627;DHT22;10975;47.872;12.972;2023-02-17T14:00:38;14.30;99.90
21627;DHT22;10975;47.872;12.972;2023-02-17T14:03:14;14.40;99.90
21627;DHT22;10975;47.872;12.972;2023-02-17T14:05:43;14.50;99.90
21627;DHT22;10975;47.872;12.972;2023-02-17T14:08:16;14.60;99.90
21627;DHT22;10975;47.872;12.972;2023-02-17T14:10:44;14.30;99.90
21627;DHT22;10975;47.872;12.972;2023-02-17T14:13:11;14.40;99.90
21627;DHT22;10975;47.872;12.972;2023-02-17T14:15:48;14.60;99.90
21627;DHT22;10975;47.872;12.972;2023-02-17T14:18:32;14.50;99.90
21627;DHT22;10975;47.872;12.972;2023-02-17T14:21:00;14.60;99.90
21627;DHT22;10975;47.872;12.972;2023-02-17T14:23:27;14.60;99.90
21627;DHT22;10975;47.872;12.972;2023-02-17T14:26:25;14.60;99.90
21627;DHT22;10975;47.872;12.972;2023-02-17T14:28:53;14.50;99.90
21627;DHT22;10975;47.872;12.972;2023-02-17T14:31:21;14.40;99.90
21627;DHT22;10975;47.872;12.972;2023-02-17T14:34:00;14.40;99.90
21627;DHT22;10975;47.872;12.972;2023-02-17T14:36:29;14.40;99.90
21627;DHT22;10975;47.872;12.972;2023-02-17T14:38:56;14.40;99.90
21627;DHT22;10975;47.872;12.972;2023-02-17T14:41:23;14.50;99.90
21627;DHT22;10975;47.872;12.972;2023-02-17T14:43:50;14.40;99.90
21627;DHT22;10975;47.872;12.972;2023-02-17T14:46:16;14.40;99.90
21627;DHT22;10975;47.872;12.972;2023-02-17T14:48:48;14.30;99.90
21627;DHT22;10975;47.872;12.972;2023-02-17T14:51:16;14.40;99.90
21627;DHT22;10975;47.872;12.972;2023-02-17T14:53:43;14.60;99.90
21627;DHT22;10975;47.872;12.972;2023-02-17T14:58:43;14.30;99.90
21627;DHT22;10975;47.872;12.972;2023-02-17T15:01:11;14.10;99.90
21627;DHT22;10975;47.872;12.972;2023-02-17T15:03:38;14.30;99.90
21627;DHT22;10975;47.872;12.972;2023-02-17T15:08:58;14.40;99.90
21627;DHT22;10975;47.872;12.972;2023-02-17T15:11:27;14.40;99.90
21627;DHT22;10975;47.872;12.972;2023-02-17T15:13:57;14.10;99.90
21627;DHT22;10975;47.872;12.972;2023-02-17T15:16:24;14.00;99.90
21627;DHT22;10975;47.872;12.972;2023-02-17T15:18:51;14.30;99.90
21627;DHT22;10975;47.872;12.972;2023-02-17T15:23:47;14.10;99.90
21627;DHT22;10975;47.872;12.972;2023-02-17T15:26:15;14.20;99.90
21627;DHT22;10975;47.872;12.972;2023-02-17T15:28:42;14.20;99.90
21627;DHT22;10975;47.872;12.972;2023-02-17T15:31:09;14.20;99.90
21627;DHT22;10975;47.872;12.972;2023-02-17T15:36:08;14.00;99.90
21627;DHT22;10975;47.872;12.972;2023-02-17T15:38:42;14.10;99.90
21627;DHT22;10975;47.872;12.972;2023-02-17T15:41:13;14.10;99.90
21627;DHT22;10975;47.872;12.972;2023-02-17T15:43:41;13.90;99.90
21627;DHT22;10975;47.872;12.972;2023-02-17T15:46:10;14.00;99.90
21627;DHT22;10975;47.872;12.972;2023-02-17T15:48:37;14.00;99.90
21627;DHT22;10975;47.872;12.972;2023-02-17T15:51:05;13.70;99.90
21627;DHT22;10975;47.872;12.972;2023-02-17T15:53:32;13.70;99.90
21627;DHT22;10975;47.872;12.972;2023-02-17T15:56:00;13.60;99.90
21627;DHT22;10975;47.872;12.972;2023-02-17T15:58:27;13.60;99.90
21627;DHT22;10975;47.872;12.972;2023-02-17T16:00:55;13.70;99.90
21627;DHT22;10975;47.872;12.972;2023-02-17T16:03:24;13.60;99.90
21627;DHT22;10975;47.872;12.972;2023-02-17T16:05:51;13.50;99.90
21627;DHT22;10975;47.872;12.972;2023-02-17T16:08:18;13.40;99.90
21627;DHT22;10975;47.872;12.972;2023-02-17T16:10:45;13.30;99.90
21627;DHT22;10975;47.872;12.972;2023-02-17T16:13:12;13.10;99.90
21627;DHT22;10975;47.872;12.972;2023-02-17T16:15:40;13.10;99.90
21627;DHT22;10975;47.872;12.972;2023-02-17T16:18:26;13.00;99.90
21627;DHT22;10975;47.872;12.972;2023-02-17T16:20:52;12.90;99.90
21627;DHT22;10975;47.872;12.972;2023-02-17T16:23:19;12.80;99.90
21627;DHT22;10975;47.872;12.972;2023-02-17T16:25:46;12.70;99.90
21627;DHT22;10975;47.872;12.972;2023-02-17T16:28:14;12.70;99.90
21627;DHT22;10975;47.872;12.972;2023-02-17T16:30:49;12.60;99.90
21627;DHT22;10975;47.872;12.972;2023-02-17T16:33:16;12.50;99.90
21627;DHT22;10975;47.872;12.972;2023-02-17T16:35:43;12.40;99.90
21627;DHT22;10975;47.872;12.972;2023-02-17T16:38:14;12.30;99.90
21627;DHT22;10975;47.872;12.972;2023-02-17T16:40:43;12.30;99.90
21627;DHT22;10975;47.872;12.972;2023-02-17T16:43:13;12.30;99.90
21627;DHT22;10975;47.872;12.972;2023-02-17T16:45:44;12.20;99.90
21627;DHT22;10975;47.872;12.972;2023-02-17T16:51:06;12.10;99.90
21627;DHT22;10975;47.872;12.972;2023-02-17T16:53:32;12.10;99.90
21627;DHT22;10975;47.872;12.972;2023-02-17T16:55:59;12.00;99.90
21627;DHT22;10975;47.872;12.972;2023-02-17T16:58:32;12.00;99.90
21627;DHT22;10975;47.872;12.972;2023-02-17T17:00:59;11.90;99.90
21627;DHT22;10975;47.872;12.972;2023-02-17T17:03:26;11.90;99.90
21627;DHT22;10975;47.872;12.972;2023-02-17T17:05:53;11.80;99.90
21627;DHT22;10975;47.872;12.972;2023-02-17T17:08:20;11.80;99.90
21627;DHT22;10975;47.872;12.972;2023-02-17T17:10:48;11.80;99.90
21627;DHT22;10975;47.872;12.972;2023-02-17T17:13:15;11.80;99.90
21627;DHT22;10975;47.872;12.972;2023-02-17T17:15:42;11.80;99.90
21627;DHT22;10975;47.872;12.972;2023-02-17T17:18:14;11.70;99.90
21627;DHT22;10975;47.872;12.972;2023-02-17T17:20:43;11.70;99.90
21627;DHT22;10975;47.872;12.972;2023-02-17T17:23:11;11.70;99.90
21627;DHT22;10975;47.872;12.972;2023-02-17T17:25:42;11.60;99.90
21627;DHT22;10975;47.872;12.972;2023-02-17T17:28:17;11.60;99.90
21627;DHT22;10975;47.872;12.972;2023-02-17T17:30:44;11.60;99.90
21627;DHT22;10975;47.872;12.972;2023-02-17T17:33:11;11.50;99.90
21627;DHT22;10975;47.872;12.972;2023-02-17T17:35:38;11.50;99.90
21627;DHT22;10975;47.872;12.972;2023-02-17T17:38:04;11.50;99.90